Time;durP1;ratioP1;P1;durP2;ratioP2;P2;SDS_P1;SDS_P2;PMS_P1;PMS_P2;Temp;Humidity;BMP_temperature;BMP_pressure;BME280_temperature;BME280_humidity;BME280_pressure;Samples;Min_cycle;Max_cycle;Signal;HPM_P1;HPM_P2
2022/04/08 00:00:08;;;;;;;19.60;7.20;;;;;;;6.81;75.78;99180.01;106600;1257;75011;-65
2022/04/08 00:02:57;;;;;;;17.90;6.10;;;;;;;6.82;75.32;99185.64;106721;1257;63486;-67
2022/04/08 00:05:26;;;;;;;18.20;6.60;;;;;;;6.83;75.38;99188.81;106738;1258;58911;-67
2022/04/08 00:07:55;;;;;;;14.60;6.30;;;;;;;6.85;75.23;99185.85;106799;1257;72893;-66
2022/04/08 00:10:24;;;;;;;18.30;7.20;;;;;;;6.85;74.95;99184.34;106625;1256;71616;-66
2022/04/08 00:12:53;;;;;;;14.50;7.30;;;;;;;6.83;75.01;99179.45;106671;1257;70298;-65
2022/04/08 00:15:22;;;;;;;19.70;7.20;;;;;;;6.79;75.20;99179.91;106800;1257;71772;-63
2022/04/08 00:17:51;;;;;;;15.00;7.50;;;;;;;6.80;75.23;99186.78;106763;1257;59698;-63
2022/04/08 00:20:20;;;;;;;20.00;7.00;;;;;;;6.80;75.40;99186.95;106611;1257;60515;-64
2022/04/08 00:22:49;;;;;;;15.20;6.50;;;;;;;6.84;75.15;99183.20;106738;1257;73080;-65
2022/04/08 00:25:18;;;;;;;17.50;7.20;;;;;;;6.84;75.30;99182.34;106724;1257;72050;-62
2022/04/08 00:27:47;;;;;;;14.70;6.40;;;;;;;6.85;75.23;99182.23;106703;1257;71197;-64
2022/04/08 00:30:16;;;;;;;17.70;6.60;;;;;;;6.86;74.60;99184.71;106743;1255;74088;-65
2022/04/08 00:32:45;;;;;;;20.70;6.90;;;;;;;6.86;74.82;99182.13;106702;1255;61800;-66
2022/04/08 00:35:14;;;;;;;14.70;6.00;;;;;;;6.89;74.95;99177.41;106767;1257;59509;-66
2022/04/08 00:37:43;;;;;;;23.20;7.80;;;;;;;6.90;74.68;99177.11;106571;1258;72808;-66
2022/04/08 00:40:12;;;;;;;12.90;6.60;;;;;;;6.90;74.78;99177.66;106609;1257;70290;-66
2022/04/08 00:42:42;;;;;;;15.90;6.70;;;;;;;6.86;74.91;99177.66;106776;1256;68780;-66
2022/04/08 00:45:12;;;;;;;17.20;6.90;;;;;;;6.85;74.74;99168.71;106936;1257;73966;-66
2022/04/08 00:47:41;;;;;;;18.70;7.40;;;;;;;6.82;74.84;99164.81;106954;1257;63562;-67
2022/04/08 00:50:13;;;;;;;17.60;6.90;;;;;;;6.80;74.95;99165.52;106935;1257;60719;-65
2022/04/08 00:52:45;;;;;;;15.80;7.10;;;;;;;6.75;75.05;99171.10;106793;1256;72555;-62
2022/04/08 00:55:14;;;;;;;20.00;7.30;;;;;;;6.72;75.17;99169.30;106818;1257;69980;-64
2022/04/08 00:57:43;;;;;;;17.20;7.20;;;;;;;6.67;75.36;99163.13;106743;1257;69604;-63
2022/04/08 01:00:13;;;;;;;16.40;7.80;;;;;;;6.67;75.35;99164.85;106756;1256;72504;-65
2022/04/08 01:02:42;;;;;;;17.00;7.30;;;;;;;6.59;75.74;99165.63;106587;1257;60711;-65
2022/04/08 01:05:11;;;;;;;19.10;7.20;;;;;;;6.53;75.86;99164.08;106469;1257;60397;-67
2022/04/08 01:07:40;;;;;;;19.90;7.40;;;;;;;6.49;75.94;99162.10;106540;1257;75420;-64
2022/04/08 01:10:09;;;;;;;17.80;7.10;;;;;;;6.46;76.49;99158.23;106474;1257;72348;-66
2022/04/08 01:12:38;;;;;;;19.60;8.70;;;;;;;6.43;76.48;99157.59;106564;1257;68628;-64
2022/04/08 01:15:09;;;;;;;17.50;7.60;;;;;;;6.41;76.13;99159.67;106572;1257;71583;-65
2022/04/08 01:17:38;;;;;;;18.20;7.10;;;;;;;6.38;76.52;99154.05;106549;1257;60611;-65
2022/04/08 01:20:08;;;;;;;20.20;7.60;;;;;;;6.34;76.65;99154.84;106686;1257;58656;-66
2022/04/08 01:22:37;;;;;;;18.90;7.50;;;;;;;6.22;76.59;99149.21;106588;1257;74789;-64
2022/04/08 01:25:10;;;;;;;20.50;7.50;;;;;;;6.26;76.99;99156.71;106557;1257;70005;-65
2022/04/08 01:27:40;;;;;;;17.40;7.30;;;;;;;6.23;76.73;99162.83;106637;1257;69868;-65
2022/04/08 01:30:13;;;;;;;16.00;7.30;;;;;;;6.18;76.90;99162.19;106656;1257;73137;-66
2022/04/08 01:32:43;;;;;;;14.50;8.10;;;;;;;6.17;77.30;99163.46;106579;1257;61307;-65
2022/04/08 01:35:13;;;;;;;21.20;7.60;;;;;;;6.13;76.87;99166.70;106635;1257;59624;-68
2022/04/08 01:37:42;;;;;;;15.50;7.30;;;;;;;6.05;77.48;99174.27;106648;1258;72427;-67
2022/04/08 01:40:12;;;;;;;19.20;7.70;;;;;;;6.00;77.73;99184.65;106682;1257;70766;-67
2022/04/08 01:42:40;;;;;;;14.10;6.60;;;;;;;5.96;77.30;99189.83;106792;1257;69764;-67
2022/04/08 01:45:10;;;;;;;16.70;7.60;;;;;;;5.94;76.48;99186.86;106704;1257;72252;-67
2022/04/08 01:47:39;;;;;;;19.20;7.90;;;;;;;5.90;76.46;99189.39;106744;1256;60860;-63
2022/04/08 01:50:09;;;;;;;14.60;7.40;;;;;;;5.86;76.67;99183.14;106687;1257;61977;-64
2022/04/08 01:52:38;;;;;;;18.10;7.00;;;;;;;5.73;77.57;99181.67;106718;1257;73005;-63
2022/04/08 01:55:07;;;;;;;15.20;7.90;;;;;;;5.69;77.30;99174.47;106713;1257;70953;-64
2022/04/08 01:57:36;;;;;;;17.30;7.50;;;;;;;5.59;77.77;99165.47;106698;1257;68840;-65
2022/04/08 02:00:08;;;;;;;15.80;7.20;;;;;;;5.55;77.82;99154.73;106584;1258;71804;-68
2022/04/08 02:02:40;;;;;;;13.20;7.60;;;;;;;5.53;78.15;99156.98;106577;1257;59804;-65
2022/04/08 02:05:09;;;;;;;15.10;8.00;;;;;;;5.50;78.19;99160.69;106561;1257;59609;-64
2022/04/08 02:07:39;;;;;;;13.90;7.10;;;;;;;5.50;78.65;99165.17;106528;1258;73679;-64
2022/04/08 02:10:10;;;;;;;15.30;7.50;;;;;;;5.48;77.84;99158.74;106476;1257;70723;-65
2022/04/08 02:12:39;;;;;;;15.40;7.60;;;;;;;5.46;77.35;99160.31;106497;1257;70566;-66
2022/04/08 02:15:10;;;;;;;15.60;6.80;;;;;;;5.38;76.62;99163.14;106510;1256;72153;-66
2022/04/08 02:17:39;;;;;;;17.60;7.30;;;;;;;5.27;76.43;99165.67;106498;1257;61769;-65
2022/04/08 02:20:09;;;;;;;18.20;7.70;;;;;;;5.14;76.28;99170.86;106665;1257;60907;-68
2022/04/08 02:22:37;;;;;;;17.50;7.40;;;;;;;5.01;78.40;99165.67;106678;1258;76024;-66
2022/04/08 02:25:07;;;;;;;15.90;7.80;;;;;;;4.96;78.59;99169.21;106476;1257;72654;-66
2022/04/08 02:27:36;;;;;;;20.10;8.30;;;;;;;4.94;78.53;99167.06;106414;1257;68831;-66
2022/04/08 02:30:06;;;;;;;12.20;8.00;;;;;;;4.87;78.96;99166.56;106464;1257;71570;-69
2022/04/08 02:32:35;;;;;;;18.30;8.80;;;;;;;4.87;78.88;99160.55;106422;1258;59805;-66
2022/04/08 02:35:05;;;;;;;18.70;8.40;;;;;;;4.85;78.73;99163.64;106379;1257;59575;-67
2022/04/08 02:37:34;;;;;;;19.20;7.70;;;;;;;4.83;78.60;99179.31;106396;1257;74499;-65
2022/04/08 02:40:04;;;;;;;18.20;7.20;;;;;;;4.77;77.03;99180.91;106415;1256;72260;-65
2022/04/08 02:42:33;;;;;;;16.50;7.20;;;;;;;4.67;77.41;99184.44;106430;1257;67612;-65
2022/04/08 02:45:02;;;;;;;16.60;7.70;;;;;;;4.60;78.69;99180.66;106379;1258;73528;-66
2022/04/08 02:47:31;;;;;;;18.00;7.60;;;;;;;4.54;78.35;99190.56;106488;1257;61108;-67
2022/04/08 02:50:01;;;;;;;18.10;7.70;;;;;;;4.47;77.83;99189.16;106255;1258;61136;-66
2022/04/08 02:52:29;;;;;;;17.40;7.00;;;;;;;4.39;79.77;99182.63;106364;1258;74622;-66
2022/04/08 02:54:58;;;;;;;17.70;7.70;;;;;;;4.37;79.70;99191.88;106487;1257;73111;-66
2022/04/08 02:57:27;;;;;;;18.90;7.20;;;;;;;4.33;79.95;99192.36;106599;1257;69342;-66
2022/04/08 02:59:56;;;;;;;21.50;7.90;;;;;;;4.34;80.05;99188.82;106106;1257;615570;-67
2022/04/08 03:02:25;;;;;;;15.90;7.80;;;;;;;4.36;79.21;99196.13;106503;1255;59589;-68
2022/04/08 03:04:54;;;;;;;23.40;8.80;;;;;;;4.30;77.28;99198.92;106459;1257;60671;-67
2022/04/08 03:07:23;;;;;;;15.80;7.90;;;;;;;4.19;78.47;99197.96;106499;1257;75739;-69
2022/04/08 03:09:52;;;;;;;15.00;7.20;;;;;;;4.10;78.35;99196.08;106473;1258;71016;-66
2022/04/08 03:12:22;;;;;;;15.00;8.10;;;;;;;4.00;80.88;99202.27;106661;1257;67264;-65
2022/04/08 03:14:51;;;;;;;22.30;8.50;;;;;;;3.94;80.18;99211.96;106706;1257;72223;-66
2022/04/08 03:17:20;;;;;;;14.50;8.20;;;;;;;3.93;81.82;99213.75;106474;1257;59665;-66
2022/04/08 03:19:49;;;;;;;13.30;7.70;;;;;;;3.93;81.11;99218.08;106644;1257;58882;-69
2022/04/08 03:22:20;;;;;;;15.00;7.50;;;;;;;3.90;81.14;99223.94;106646;1257;73672;-70
2022/04/08 03:24:54;;;;;;;15.40;7.10;;;;;;;3.91;80.81;99219.39;106686;1257;71624;-68
2022/04/08 03:27:22;;;;;;;;;;;;;;;3.91;80.59;99226.10;106725;1257;70617;-68
2022/04/08 03:29:51;;;;;;;18.40;8.90;;;;;;;3.89;79.67;99236.75;106679;1257;72282;-68
2022/04/08 03:32:20;;;;;;;20.70;8.60;;;;;;;3.86;79.60;99231.98;106627;1256;60005;-66
2022/04/08 03:34:57;;;;;;;21.80;9.90;;;;;;;3.83;81.18;99224.45;106566;1257;59708;-67
2022/04/08 03:37:27;;;;;;;18.80;9.70;;;;;;;3.81;81.24;99222.86;106536;1257;72611;-67
2022/04/08 03:39:56;;;;;;;13.30;8.80;;;;;;;3.83;80.60;99228.89;106886;1257;71504;-66
2022/04/08 03:42:25;;;;;;;20.20;9.00;;;;;;;3.82;80.29;99226.88;106703;1257;68486;-67
2022/04/08 03:44:54;;;;;;;19.20;10.20;;;;;;;3.81;80.36;99229.60;106754;1257;74322;-69
2022/04/08 03:47:24;;;;;;;19.20;11.00;;;;;;;3.78;80.31;99233.02;106641;1257;59653;-67
2022/04/08 03:49:53;;;;;;;22.60;11.40;;;;;;;3.77;80.91;99239.00;106787;1257;58881;-67
2022/04/08 03:52:22;;;;;;;17.40;10.10;;;;;;;3.74;80.04;99239.15;106775;1257;72810;-65
2022/04/08 03:54:51;;;;;;;20.70;10.90;;;;;;;3.70;80.74;99230.84;106803;1257;72115;-67
2022/04/08 03:57:20;;;;;;;18.50;10.70;;;;;;;3.65;81.74;99234.95;106886;1257;71544;-67
2022/04/08 03:59:49;;;;;;;17.70;10.40;;;;;;;3.68;81.62;99242.30;106931;1258;74213;-68
2022/04/08 04:02:19;;;;;;;24.60;9.00;;;;;;;3.73;81.21;99250.73;106865;1257;59507;-68
2022/04/08 04:04:49;;;;;;;14.30;9.40;;;;;;;3.74;80.37;99251.03;106802;1257;59600;-67
2022/04/08 04:07:18;;;;;;;19.20;10.40;;;;;;;3.73;80.81;99249.72;106759;1257;72567;-67
2022/04/08 04:09:47;;;;;;;19.50;10.20;;;;;;;3.75;80.43;99253.55;106745;1257;70989;-65
2022/04/08 04:12:16;;;;;;;25.40;11.70;;;;;;;3.77;80.19;99254.09;106738;1256;69051;-66
2022/04/08 04:14:45;;;;;;;27.30;12.90;;;;;;;3.81;80.24;99262.46;106755;1255;74366;-66
2022/04/08 04:17:14;;;;;;;27.00;11.90;;;;;;;3.83;79.18;99262.16;106671;1257;61658;-69
2022/04/08 04:19:42;;;;;;;23.70;11.40;;;;;;;3.84;79.57;99264.31;106660;1257;60799;-66
2022/04/08 04:22:11;;;;;;;23.30;10.90;;;;;;;3.82;80.59;99258.95;106592;1257;75517;-70
2022/04/08 04:24:40;;;;;;;26.10;10.70;;;;;;;3.95;80.50;99265.61;106576;1257;72832;-67
2022/04/08 04:27:09;;;;;;;23.20;11.40;;;;;;;4.01;80.44;99265.06;106617;1257;70506;-67
2022/04/08 04:29:39;;;;;;;22.50;11.60;;;;;;;4.12;80.31;99271.54;106636;1257;75077;-67
2022/04/08 04:32:09;;;;;;;21.00;11.00;;;;;;;4.19;80.52;99275.69;106642;1257;60982;-66
2022/04/08 04:34:38;;;;;;;23.30;11.30;;;;;;;4.26;80.02;99281.13;106808;1256;62060;-66
2022/04/08 04:37:10;;;;;;;22.50;10.00;;;;;;;4.30;79.47;99281.67;106827;1257;72732;-65
2022/04/08 04:39:39;;;;;;;19.00;11.50;;;;;;;4.39;80.28;99284.30;106778;1257;73399;-67
2022/04/08 04:42:08;;;;;;;25.20;11.50;;;;;;;4.48;79.77;99290.63;106873;1257;70234;-67
2022/04/08 04:44:37;;;;;;;24.40;12.10;;;;;;;4.57;80.51;99292.22;106834;1257;74143;-66
2022/04/08 04:47:08;;;;;;;26.30;12.40;;;;;;;4.68;80.18;99291.26;106767;1257;62045;-71
2022/04/08 04:49:36;;;;;;;23.10;12.00;;;;;;;4.78;79.26;99292.83;106766;1257;61126;-66
2022/04/08 04:52:06;;;;;;;22.30;11.40;;;;;;;4.88;78.80;99297.96;106975;1257;75519;-69
2022/04/08 04:54:35;;;;;;;23.00;12.00;;;;;;;5.03;80.50;99304.46;106976;1257;71198;-73
2022/04/08 04:57:05;;;;;;;28.10;13.20;;;;;;;5.21;80.65;99306.08;106929;1257;68808;-69
2022/04/08 04:59:34;;;;;;;21.50;12.80;;;;;;;5.43;80.49;99298.83;106792;1256;73189;-69
2022/04/08 05:02:04;;;;;;;29.40;13.70;;;;;;;5.62;79.24;99301.59;106783;1257;59612;-66
2022/04/08 05:04:33;;;;;;;40.30;13.50;;;;;;;5.76;78.90;99310.16;106652;1257;60398;-72
2022/04/08 05:07:02;;;;;;;29.90;12.30;;;;;;;5.94;78.04;99309.78;106595;1256;73543;-68
2022/04/08 05:09:32;;;;;;;25.50;12.20;;;;;;;6.04;76.34;99315.69;106664;1257;72001;-66
2022/04/08 05:12:00;;;;;;;26.00;13.00;;;;;;;6.14;76.29;99314.59;106587;1257;68674;-66
2022/04/08 05:14:29;;;;;;;31.30;12.30;;;;;;;6.21;75.74;99317.35;106608;1257;74887;-69
2022/04/08 05:16:59;;;;;;;25.60;13.00;;;;;;;6.29;75.18;99316.93;106596;1257;61210;-66
2022/04/08 05:19:28;;;;;;;27.70;13.80;;;;;;;6.38;74.93;99319.31;106603;1257;61759;-67
2022/04/08 05:21:56;;;;;;;32.40;13.90;;;;;;;6.48;75.20;99325.67;106585;1256;73943;-68
2022/04/08 05:24:25;;;;;;;27.10;12.80;;;;;;;6.55;74.74;99316.44;106580;1257;71434;-69
2022/04/08 05:26:54;;;;;;;25.30;12.50;;;;;;;6.69;73.85;99318.70;106579;1257;68460;-67
2022/04/08 05:29:24;;;;;;;29.40;13.50;;;;;;;6.83;74.06;99318.62;106595;1257;72116;-67
2022/04/08 05:31:52;;;;;;;28.30;13.60;;;;;;;6.96;73.16;99314.51;106605;1257;60902;-66
2022/04/08 05:34:22;;;;;;;32.80;13.40;;;;;;;7.07;72.72;99315.60;106607;1255;60837;-68
2022/04/08 05:36:51;;;;;;;32.40;13.00;;;;;;;7.19;72.35;99323.35;106396;1257;75117;-63
2022/04/08 05:39:19;;;;;;;29.30;13.40;;;;;;;7.31;72.29;99327.20;106618;1257;72754;-69
2022/04/08 05:41:48;;;;;;;27.00;13.90;;;;;;;7.44;71.58;99324.25;106601;1257;71407;-69
2022/04/08 05:44:18;;;;;;;31.60;13.30;;;;;;;7.52;70.93;99322.75;106706;1257;72459;-69
2022/04/08 05:46:47;;;;;;;24.70;12.00;;;;;;;7.68;71.38;99324.56;106630;1257;59715;-67
2022/04/08 05:49:17;;;;;;;25.90;12.00;;;;;;;7.81;71.45;99326.73;106614;1257;60083;-68
2022/04/08 05:51:47;;;;;;;20.30;11.80;;;;;;;7.97;70.76;99326.31;106670;1257;71915;-71
2022/04/08 05:54:16;;;;;;;25.80;10.90;;;;;;;8.11;69.81;99332.26;106445;1258;71251;-68
2022/04/08 05:56:45;;;;;;;27.70;11.50;;;;;;;8.19;69.58;99337.80;106769;1257;69679;-67
2022/04/08 05:59:14;;;;;;;30.90;13.00;;;;;;;8.28;69.48;99337.23;106843;1257;74063;-68
2022/04/08 06:01:43;;;;;;;17.10;10.10;;;;;;;8.41;69.02;99331.11;106934;1257;61145;-69
2022/04/08 06:04:13;;;;;;;23.50;10.50;;;;;;;8.66;68.26;99329.39;106794;1257;61110;-68
2022/04/08 06:06:43;;;;;;;27.80;11.00;;;;;;;8.81;67.93;99329.97;106815;1257;73781;-69
2022/04/08 06:09:12;;;;;;;23.70;10.90;;;;;;;8.95;67.47;99332.38;106773;1257;70026;-68
2022/04/08 06:11:44;;;;;;;26.00;11.10;;;;;;;8.98;66.00;99330.70;106900;1257;69146;-68
2022/04/08 06:14:13;;;;;;;26.70;10.90;;;;;;;9.11;65.59;99326.25;106812;1257;73149;-68
2022/04/08 06:16:42;;;;;;;20.70;10.60;;;;;;;9.28;65.44;99327.38;106720;1257;61812;-67
2022/04/08 06:19:11;;;;;;;21.30;11.00;;;;;;;9.43;64.84;99329.34;106606;1257;60956;-68
2022/04/08 06:21:40;;;;;;;18.50;9.50;;;;;;;9.54;65.85;99323.80;106593;1257;74660;-67
2022/04/08 06:24:10;;;;;;;23.60;10.50;;;;;;;9.66;64.58;99320.70;106537;1257;73034;-67
2022/04/08 06:26:40;;;;;;;20.20;10.30;;;;;;;9.57;63.99;99326.04;106667;1257;68298;-68
2022/04/08 06:29:09;;;;;;;16.10;9.60;;;;;;;9.69;64.33;99332.89;106521;1257;74070;-67
2022/04/08 06:31:42;;;;;;;20.80;9.70;;;;;;;9.78;63.92;99333.67;106409;1258;60354;-64
2022/04/08 06:34:11;;;;;;;20.30;9.30;;;;;;;9.84;63.72;99341.14;106647;1257;60871;-67
2022/04/08 06:36:40;;;;;;;16.80;9.10;;;;;;;9.93;63.43;99338.39;106605;1257;72903;-71
2022/04/08 06:39:09;;;;;;;18.60;9.90;;;;;;;10.05;63.06;99339.86;106667;1257;70388;-70
2022/04/08 06:41:38;;;;;;;21.50;9.80;;;;;;;10.19;62.67;99346.24;106572;1257;68913;-69
2022/04/08 06:44:07;;;;;;;18.40;9.80;;;;;;;10.37;61.64;99354.36;106614;1257;74228;-69
2022/04/08 06:46:36;;;;;;;19.20;10.50;;;;;;;10.47;61.71;99356.59;106657;1257;60394;-68
2022/04/08 06:49:05;;;;;;;23.20;11.50;;;;;;;10.55;61.61;99361.40;106685;1257;59644;-70
2022/04/08 06:51:34;;;;;;;24.00;11.10;;;;;;;10.66;61.61;99372.00;106624;1257;74805;-67
2022/04/08 06:54:03;;;;;;;25.80;11.20;;;;;;;10.79;61.31;99377.91;106612;1257;71546;-70
2022/04/08 06:56:32;;;;;;;19.60;9.80;;;;;;;10.94;60.64;99378.61;106653;1257;68751;-68
2022/04/08 06:59:01;;;;;;;18.50;10.20;;;;;;;11.10;60.06;99382.13;106482;1257;72390;-70
2022/04/08 07:01:30;;;;;;;21.80;10.40;;;;;;;11.24;60.04;99379.08;106553;1257;60185;-68
2022/04/08 07:03:59;;;;;;;22.00;10.80;;;;;;;11.38;59.15;99373.85;106645;1257;60721;-71
2022/04/08 07:06:29;;;;;;;24.40;12.30;;;;;;;11.47;59.45;99369.70;106630;1256;75550;-69
2022/04/08 07:08:58;;;;;;;21.30;10.60;;;;;;;11.62;58.80;99375.86;106651;1257;70790;-68
2022/04/08 07:11:34;;;;;;;21.30;11.50;;;;;;;11.68;58.09;99373.02;106531;1257;71158;-67
2022/04/08 07:14:04;;;;;;;25.40;12.10;;;;;;;11.88;58.13;99378.90;106558;1257;75087;-67
2022/04/08 07:16:33;;;;;;;22.30;11.90;;;;;;;12.02;57.28;99382.32;106624;1257;61081;-67
2022/04/08 07:19:03;;;;;;;17.70;11.00;;;;;;;12.14;57.36;99390.11;106609;1257;61674;-68
2022/04/08 07:21:31;;;;;;;21.60;11.10;;;;;;;12.41;57.52;99387.40;106738;1257;75133;-68
2022/04/08 07:24:00;;;;;;;18.90;11.80;;;;;;;12.63;55.91;99392.14;106753;1256;73145;-68
2022/04/08 07:26:29;;;;;;;22.00;11.60;;;;;;;12.78;55.06;99405.00;106627;1257;68987;-68
2022/04/08 07:29:00;;;;;;;18.80;11.10;;;;;;;12.92;54.45;99406.30;106577;1257;72387;-68
2022/04/08 07:31:29;;;;;;;23.00;11.80;;;;;;;13.07;54.33;99396.57;106769;1257;59573;-70
2022/04/08 07:33:58;;;;;;;27.40;12.70;;;;;;;13.28;54.04;99402.48;106790;1257;61512;-72
2022/04/08 07:36:27;;;;;;;22.60;11.40;;;;;;;13.48;53.70;99402.42;106638;1257;75525;-69
2022/04/08 07:38:56;;;;;;;23.30;12.90;;;;;;;13.76;53.07;99407.17;106741;1257;72399;-74
2022/04/08 07:41:25;;;;;;;24.10;12.20;;;;;;;14.06;51.47;99401.84;106844;1257;69442;-70
2022/04/08 07:43:55;;;;;;;23.30;12.20;;;;;;;14.21;51.13;99398.80;106719;1257;71617;-68
2022/04/08 07:46:25;;;;;;;18.10;9.80;;;;;;;14.41;50.70;99407.40;106403;1257;59844;-67
2022/04/08 07:48:54;;;;;;;20.50;11.00;;;;;;;14.54;49.84;99403.71;106567;1257;61762;-68
2022/04/08 07:51:23;;;;;;;24.10;11.80;;;;;;;14.65;49.44;99400.27;106540;1257;75281;-69
2022/04/08 07:53:52;;;;;;;18.00;10.60;;;;;;;14.68;50.24;99400.05;106563;1256;72366;-69
2022/04/08 07:56:21;;;;;;;18.40;10.40;;;;;;;14.89;49.72;99397.16;106625;1256;69068;-68
2022/04/08 07:58:50;;;;;;;22.10;10.50;;;;;;;15.10;48.29;99391.45;106576;1256;72110;-68
2022/04/08 08:01:19;;;;;;;15.50;10.10;;;;;;;15.21;47.25;99386.50;106549;1257;61663;-69
2022/04/08 08:03:48;;;;;;;17.00;9.40;;;;;;;15.13;47.98;99380.13;106741;1257;61903;-69
2022/04/08 08:06:17;;;;;;;19.70;10.20;;;;;;;15.28;48.05;99375.41;106772;1257;74883;-71
2022/04/08 08:08:49;;;;;;;21.80;11.30;;;;;;;15.42;47.96;99380.39;106730;1257;71670;-70
2022/04/08 08:11:19;;;;;;;19.00;8.60;;;;;;;15.66;47.30;99384.42;106669;1256;68478;-68
2022/04/08 08:13:57;;;;;;;17.50;8.50;;;;;;;15.83;45.31;99383.71;106493;1257;74221;-68
2022/04/08 08:16:26;;;;;;;16.40;9.20;;;;;;;15.82;45.21;99394.70;106569;1257;59582;-70
2022/04/08 08:18:56;;;;;;;16.80;9.30;;;;;;;15.77;45.47;99396.44;106444;1257;61577;-70
2022/04/08 08:21:26;;;;;;;16.10;9.20;;;;;;;15.91;46.33;99406.19;106545;1257;72544;-70
2022/04/08 08:23:55;;;;;;;14.40;8.20;;;;;;;15.99;45.66;99410.75;106492;1257;72100;-68
2022/04/08 08:26:24;;;;;;;17.80;8.10;;;;;;;16.05;45.69;99406.27;106675;1257;69412;-69
2022/04/08 08:28:53;;;;;;;13.60;8.50;;;;;;;16.09;45.01;99392.26;106472;1257;74096;-69
2022/04/08 08:31:23;;;;;;;10.60;6.60;;;;;;;16.19;43.43;99387.70;106450;1257;60581;-69
2022/04/08 08:33:52;;;;;;;9.40;6.20;;;;;;;16.23;43.42;99383.91;106620;1257;59366;-68
2022/04/08 08:36:22;;;;;;;9.30;5.70;;;;;;;16.31;42.13;99392.54;106589;1257;74896;-69
2022/04/08 08:38:51;;;;;;;9.60;6.10;;;;;;;16.32;41.70;99402.42;106554;1256;72689;-69
2022/04/08 08:41:20;;;;;;;13.30;7.10;;;;;;;16.33;42.30;99400.58;106479;1257;70303;-72
2022/04/08 08:43:49;;;;;;;11.60;6.40;;;;;;;16.46;41.98;99395.93;106680;1257;75096;-71
2022/04/08 08:46:20;;;;;;;8.70;4.90;;;;;;;16.62;41.21;99393.05;106643;1257;61610;-70
2022/04/08 08:48:50;;;;;;;6.90;3.70;;;;;;;16.73;39.64;99390.29;106583;1257;60397;-71
2022/04/08 08:51:20;;;;;;;8.40;4.50;;;;;;;16.76;39.76;99395.92;106718;1257;71793;-71
2022/04/08 08:53:49;;;;;;;7.80;4.90;;;;;;;16.94;39.81;99400.63;106747;1257;71287;-70
2022/04/08 08:56:18;;;;;;;7.70;4.90;;;;;;;17.16;39.37;99387.75;106744;1256;68772;-73
2022/04/08 08:58:47;;;;;;;10.60;5.60;;;;;;;17.24;38.87;99379.57;106564;1257;72506;-71
2022/04/08 09:01:16;;;;;;;11.10;6.20;;;;;;;17.20;39.56;99380.90;106571;1257;59464;-72
2022/04/08 09:03:45;;;;;;;10.40;6.10;;;;;;;17.28;40.18;99389.44;106419;1257;59775;-70
2022/04/08 09:06:16;;;;;;;9.00;5.80;;;;;;;17.45;40.27;99386.17;106580;1257;73744;-72
2022/04/08 09:08:58;;;;;;;10.80;6.20;;;;;;;17.69;38.76;99380.40;106532;1257;72511;-70
2022/04/08 09:11:28;;;;;;;13.70;7.00;;;;;;;17.83;38.93;99382.42;106586;1257;69723;-70
2022/04/08 09:14:05;;;;;;;12.00;6.40;;;;;;;17.94;38.34;99382.92;106569;1257;73822;-70
2022/04/08 09:16:39;;;;;;;11.60;6.30;;;;;;;17.88;38.30;99386.33;106575;1257;61070;-68
2022/04/08 09:19:14;;;;;;;12.90;6.10;;;;;;;18.14;38.52;99386.09;106543;1257;60250;-71
2022/04/08 09:21:53;;;;;;;15.20;7.20;;;;;;;18.22;38.10;99388.65;106643;1257;73106;-69
2022/04/08 09:24:27;;;;;;;9.30;6.30;;;;;;;18.25;38.22;99386.88;106696;1255;72389;-71
2022/04/08 09:26:57;;;;;;;8.90;5.40;;;;;;;18.32;38.26;99389.81;106615;1257;69694;-69
2022/04/08 09:29:27;;;;;;;10.70;5.70;;;;;;;18.44;37.67;99396.89;106406;1257;73902;-70
2022/04/08 09:32:16;;;;;;;8.70;6.20;;;;;;;18.49;37.71;99399.89;106648;1256;59709;-72
2022/04/08 09:34:51;;;;;;;10.00;7.00;;;;;;;18.58;37.43;99403.27;106911;1257;59632;-71
2022/04/08 09:37:20;;;;;;;8.40;5.50;;;;;;;18.67;38.17;99401.93;106960;1257;73740;-70
2022/04/08 09:39:58;;;;;;;9.40;5.80;;;;;;;18.81;38.10;99400.71;106741;1257;72805;-72
2022/04/08 09:42:46;;;;;;;9.80;5.80;;;;;;;18.98;37.07;99403.36;106670;1256;60659;-70
2022/04/08 09:45:30;;;;;;;10.70;5.60;;;;;;;19.08;36.56;99399.38;106828;1256;73260;-70
2022/04/08 09:48:05;;;;;;;10.10;5.90;;;;;;;19.20;37.08;99395.91;106604;1256;62275;-71
2022/04/08 09:50:36;;;;;;;12.40;5.70;;;;;;;19.39;36.67;99389.22;106598;1259;61202;-70
2022/04/08 09:53:05;;;;;;;10.10;5.00;;;;;;;19.62;35.89;99392.39;106521;1257;75406;-71
2022/04/08 09:55:36;;;;;;;8.20;5.70;;;;;;;19.62;35.70;99392.11;106646;1257;71684;-72
2022/04/08 09:58:08;;;;;;;9.20;6.20;;;;;;;19.56;35.93;99382.54;106653;1257;71299;-70
2022/04/08 10:00:37;;;;;;;10.90;6.10;;;;;;;19.60;36.00;99381.66;106562;1257;63698;-71
2022/04/08 10:03:09;;;;;;;11.60;5.30;;;;;;;19.82;34.81;99385.90;106775;1257;60073;-75
2022/04/08 10:05:39;;;;;;;8.20;5.30;;;;;;;20.01;34.76;99388.27;106716;1257;62058;-71
2022/04/08 10:08:08;;;;;;;8.30;3.80;;;;;;;20.33;33.26;99383.98;106624;1257;74419;-73
2022/04/08 10:11:00;;;;;;;5.50;3.90;;;;;;;20.43;32.33;99371.65;106719;1257;62226;-70
2022/04/08 10:13:58;;;;;;;6.80;4.30;;;;;;;20.63;31.64;99393.41;106578;1257;70664;-71
2022/04/08 10:16:28;;;;;;;7.50;3.80;;;;;;;20.69;31.52;99390.59;106623;1257;63637;-70
2022/04/08 10:19:04;;;;;;;6.70;4.80;;;;;;;20.91;31.05;99390.32;106663;1257;59576;-71
2022/04/08 10:21:41;;;;;;;8.40;4.10;;;;;;;21.06;30.87;99381.16;106482;1257;61546;-73
2022/04/08 10:24:13;;;;;;;7.10;4.00;;;;;;;21.07;30.79;99394.45;106601;1257;74316;-73
2022/04/08 10:27:14;;;;;;;7.10;3.80;;;;;;;21.15;30.91;99393.14;106656;1257;61441;-73
2022/04/08 10:29:55;;;;;;;6.80;3.60;;;;;;;21.30;30.96;99390.29;106345;1257;59400;-73
2022/04/08 10:32:23;;;;;;;9.20;3.70;;;;;;;21.72;30.62;99394.42;106901;1257;74037;-74
2022/04/08 10:34:52;;;;;;;10.70;4.20;;;;;;;22.32;29.58;99390.82;106891;1257;60503;-73
2022/04/08 10:37:24;;;;;;;7.90;3.50;;;;;;;22.57;29.12;99395.20;106813;1257;59179;-72
2022/04/08 10:40:04;;;;;;;8.60;3.40;;;;;;;22.69;28.39;99394.83;106775;1257;74445;-72
2022/04/08 10:42:34;;;;;;;4.00;3.20;;;;;;;22.77;27.83;99396.34;106607;1257;73284;-73
2022/04/08 10:45:14;;;;;;;8.20;3.70;;;;;;;22.88;27.36;99395.55;106699;1257;60711;-71
2022/04/08 10:47:48;;;;;;;11.60;4.00;;;;;;;22.90;27.20;99400.52;106714;1257;63202;-70
2022/04/08 10:50:34;;;;;;;8.10;3.70;;;;;;;23.20;26.87;99409.08;106669;1257;59596;-72
2022/04/08 10:53:18;;;;;;;6.30;3.40;;;;;;;23.41;26.47;99412.00;106630;1257;60402;-70
2022/04/08 10:55:53;;;;;;;5.30;3.20;;;;;;;23.42;26.22;99414.79;106361;1257;64515;-71
2022/04/08 10:58:39;;;;;;;5.60;3.20;;;;;;;23.60;25.78;99398.55;106623;1257;61622;-70
2022/04/08 11:01:23;;;;;;;5.60;3.70;;;;;;;23.64;26.23;99403.45;106710;1257;70614;-71
2022/04/08 11:03:55;;;;;;;6.40;3.70;;;;;;;23.82;25.42;99387.11;106559;1257;64752;-70
2022/04/08 11:06:29;;;;;;;6.40;4.10;;;;;;;23.86;25.75;99381.98;106440;1257;58431;-70
2022/04/08 11:09:05;;;;;;;8.10;4.50;;;;;;;23.87;25.39;99392.63;106240;1260;59639;-70
2022/04/08 11:11:40;;;;;;;8.00;4.30;;;;;;;23.92;25.00;99396.58;106583;1257;64762;-74
2022/04/08 11:14:10;;;;;;;6.20;3.20;;;;;;;23.96;25.43;99399.91;106578;1257;72346;-72
2022/04/08 11:16:41;;;;;;;6.00;2.80;;;;;;;24.17;24.81;99399.36;106745;1257;60815;-72
2022/04/08 11:19:11;;;;;;;7.50;3.30;;;;;;;24.13;25.14;99397.52;106535;1257;73271;-73
2022/04/08 11:21:42;;;;;;;6.20;3.30;;;;;;;24.33;24.89;99401.45;106677;1257;59603;-73
2022/04/08 11:24:14;;;;;;;5.00;2.90;;;;;;;24.40;24.93;99401.95;106882;1257;61401;-73
2022/04/08 11:26:47;;;;;;;3.40;2.50;;;;;;;24.54;24.55;99399.64;106935;1257;74956;-74
2022/04/08 11:29:22;;;;;;;6.10;2.90;;;;;;;24.50;24.73;99397.39;106825;1257;70751;-73
2022/04/08 11:32:11;;;;;;;3.80;2.40;;;;;;;24.43;24.88;99409.98;106671;1257;71230;-73
2022/04/08 11:34:40;;;;;;;5.90;3.00;;;;;;;24.20;24.78;99419.93;106438;1257;73048;-75
2022/04/08 11:37:09;;;;;;;3.90;2.60;;;;;;;24.20;25.04;99427.68;106632;1257;59612;-71